sensor_id;sensor_type;location;lat;lon;timestamp;P1;durP1;ratioP1;P2;durP2;ratioP2
7450;SDS011;3767;42.688;23.360;2022-12-07T00:02:02;37.10;;;16.33;;
7450;SDS011;3767;42.688;23.360;2022-12-07T00:04:28;38.93;;;16.50;;
7450;SDS011;3767;42.688;23.360;2022-12-07T00:06:54;40.70;;;16.70;;
7450;SDS011;3767;42.688;23.360;2022-12-07T00:09:22;31.73;;;14.47;;
7450;SDS011;3767;42.688;23.360;2022-12-07T00:11:49;27.73;;;13.33;;
7450;SDS011;3767;42.688;23.360;2022-12-07T00:14:16;29.97;;;13.33;;
7450;SDS011;3767;42.688;23.360;2022-12-07T00:16:43;28.97;;;13.00;;
7450;SDS011;3767;42.688;23.360;2022-12-07T00:19:10;32.07;;;12.37;;
7450;SDS011;3767;42.688;23.360;2022-12-07T00:21:37;26.10;;;11.93;;
7450;SDS011;3767;42.688;23.360;2022-12-07T00:24:04;24.13;;;11.80;;
7450;SDS011;3767;42.688;23.360;2022-12-07T00:26:33;31.20;;;12.37;;
7450;SDS011;3767;42.688;23.360;2022-12-07T00:29:00;22.83;;;11.17;;
7450;SDS011;3767;42.688;23.360;2022-12-07T00:31:28;30.40;;;12.40;;
7450;SDS011;3767;42.688;23.360;2022-12-07T00:33:55;30.47;;;12.40;;
7450;SDS011;3767;42.688;23.360;2022-12-07T00:36:22;29.43;;;13.03;;
7450;SDS011;3767;42.688;23.360;2022-12-07T00:38:49;27.33;;;12.47;;
7450;SDS011;3767;42.688;23.360;2022-12-07T00:41:15;28.17;;;13.07;;
7450;SDS011;3767;42.688;23.360;2022-12-07T00:43:44;31.43;;;12.67;;
7450;SDS011;3767;42.688;23.360;2022-12-07T00:46:11;31.37;;;13.10;;
7450;SDS011;3767;42.688;23.360;2022-12-07T00:48:38;26.77;;;12.03;;
7450;SDS011;3767;42.688;23.360;2022-12-07T00:51:05;23.73;;;12.37;;
7450;SDS011;3767;42.688;23.360;2022-12-07T00:53:33;28.67;;;13.27;;
7450;SDS011;3767;42.688;23.360;2022-12-07T00:56:04;24.77;;;11.67;;
7450;SDS011;3767;42.688;23.360;2022-12-07T00:58:30;32.60;;;13.67;;
7450;SDS011;3767;42.688;23.360;2022-12-07T01:01:00;29.83;;;13.53;;
7450;SDS011;3767;42.688;23.360;2022-12-07T01:03:27;28.77;;;13.60;;
7450;SDS011;3767;42.688;23.360;2022-12-07T01:05:54;26.37;;;12.03;;
7450;SDS011;3767;42.688;23.360;2022-12-07T01:08:21;26.93;;;13.03;;
7450;SDS011;3767;42.688;23.360;2022-12-07T01:10:48;29.17;;;13.63;;
7450;SDS011;3767;42.688;23.360;2022-12-07T01:13:15;31.87;;;13.53;;
7450;SDS011;3767;42.688;23.360;2022-12-07T01:15:42;26.50;;;12.83;;
7450;SDS011;3767;42.688;23.360;2022-12-07T01:18:10;30.90;;;13.03;;
7450;SDS011;3767;42.688;23.360;2022-12-07T01:20:37;27.00;;;13.13;;
7450;SDS011;3767;42.688;23.360;2022-12-07T01:23:04;29.90;;;13.40;;
7450;SDS011;3767;42.688;23.360;2022-12-07T01:25:31;24.87;;;12.43;;
7450;SDS011;3767;42.688;23.360;2022-12-07T01:27:57;30.43;;;13.40;;
7450;SDS011;3767;42.688;23.360;2022-12-07T01:30:24;29.77;;;13.90;;
7450;SDS011;3767;42.688;23.360;2022-12-07T01:32:50;27.20;;;13.47;;
7450;SDS011;3767;42.688;23.360;2022-12-07T01:35:18;28.87;;;13.27;;
7450;SDS011;3767;42.688;23.360;2022-12-07T01:37:45;26.10;;;12.90;;
7450;SDS011;3767;42.688;23.360;2022-12-07T01:40:11;27.10;;;13.23;;
7450;SDS011;3767;42.688;23.360;2022-12-07T01:42:38;27.73;;;13.83;;
7450;SDS011;3767;42.688;23.360;2022-12-07T01:47:51;29.60;;;14.10;;
7450;SDS011;3767;42.688;23.360;2022-12-07T01:50:20;28.27;;;14.10;;
7450;SDS011;3767;42.688;23.360;2022-12-07T01:52:47;32.23;;;14.70;;
7450;SDS011;3767;42.688;23.360;2022-12-07T01:55:15;36.43;;;15.40;;
7450;SDS011;3767;42.688;23.360;2022-12-07T01:57:43;33.93;;;14.60;;
7450;SDS011;3767;42.688;23.360;2022-12-07T02:00:11;38.27;;;15.37;;
7450;SDS011;3767;42.688;23.360;2022-12-07T02:02:38;32.13;;;15.53;;
7450;SDS011;3767;42.688;23.360;2022-12-07T02:05:05;39.07;;;16.63;;
7450;SDS011;3767;42.688;23.360;2022-12-07T02:07:33;41.00;;;17.90;;
7450;SDS011;3767;42.688;23.360;2022-12-07T02:10:11;40.40;;;17.23;;
7450;SDS011;3767;42.688;23.360;2022-12-07T02:12:38;37.40;;;16.87;;
7450;SDS011;3767;42.688;23.360;2022-12-07T02:15:04;40.07;;;17.27;;
7450;SDS011;3767;42.688;23.360;2022-12-07T02:17:32;37.83;;;17.00;;
7450;SDS011;3767;42.688;23.360;2022-12-07T02:20:08;43.23;;;18.13;;
7450;SDS011;3767;42.688;23.360;2022-12-07T02:25:37;36.00;;;15.97;;
7450;SDS011;3767;42.688;23.360;2022-12-07T02:28:08;38.33;;;16.03;;
7450;SDS011;3767;42.688;23.360;2022-12-07T02:30:40;31.23;;;14.97;;
7450;SDS011;3767;42.688;23.360;2022-12-07T02:33:10;40.40;;;15.67;;
7450;SDS011;3767;42.688;23.360;2022-12-07T02:35:39;36.27;;;15.63;;
7450;SDS011;3767;42.688;23.360;2022-12-07T02:38:08;37.07;;;15.17;;
7450;SDS011;3767;42.688;23.360;2022-12-07T02:40:38;35.17;;;15.13;;
7450;SDS011;3767;42.688;23.360;2022-12-07T02:43:07;33.13;;;15.23;;
7450;SDS011;3767;42.688;23.360;2022-12-07T02:45:35;33.17;;;14.97;;
7450;SDS011;3767;42.688;23.360;2022-12-07T02:48:04;35.07;;;15.17;;
7450;SDS011;3767;42.688;23.360;2022-12-07T02:50:31;29.87;;;13.77;;
7450;SDS011;3767;42.688;23.360;2022-12-07T02:52:57;33.37;;;14.00;;
7450;SDS011;3767;42.688;23.360;2022-12-07T02:55:26;32.17;;;14.40;;
7450;SDS011;3767;42.688;23.360;2022-12-07T02:58:01;29.83;;;13.13;;
7450;SDS011;3767;42.688;23.360;2022-12-07T03:00:32;30.57;;;13.90;;
7450;SDS011;3767;42.688;23.360;2022-12-07T03:03:03;31.80;;;13.13;;
7450;SDS011;3767;42.688;23.360;2022-12-07T03:05:41;31.37;;;13.60;;
7450;SDS011;3767;42.688;23.360;2022-12-07T03:08:11;31.67;;;13.13;;
7450;SDS011;3767;42.688;23.360;2022-12-07T03:10:40;29.13;;;12.73;;
7450;SDS011;3767;42.688;23.360;2022-12-07T03:13:09;30.17;;;13.50;;
7450;SDS011;3767;42.688;23.360;2022-12-07T03:15:40;27.80;;;13.60;;
7450;SDS011;3767;42.688;23.360;2022-12-07T03:18:09;35.20;;;13.77;;
7450;SDS011;3767;42.688;23.360;2022-12-07T03:20:36;35.30;;;13.57;;
7450;SDS011;3767;42.688;23.360;2022-12-07T03:23:05;30.77;;;13.67;;
7450;SDS011;3767;42.688;23.360;2022-12-07T03:25:34;28.77;;;13.33;;
7450;SDS011;3767;42.688;23.360;2022-12-07T03:28:02;30.77;;;13.20;;
7450;SDS011;3767;42.688;23.360;2022-12-07T03:30:31;35.97;;;13.23;;
7450;SDS011;3767;42.688;23.360;2022-12-07T03:32:59;26.00;;;13.37;;
7450;SDS011;3767;42.688;23.360;2022-12-07T03:35:28;33.47;;;14.60;;
7450;SDS011;3767;42.688;23.360;2022-12-07T03:37:59;32.80;;;14.20;;
7450;SDS011;3767;42.688;23.360;2022-12-07T03:40:28;29.67;;;13.00;;
7450;SDS011;3767;42.688;23.360;2022-12-07T03:42:56;25.73;;;13.03;;
7450;SDS011;3767;42.688;23.360;2022-12-07T03:45:29;28.97;;;13.30;;
7450;SDS011;3767;42.688;23.360;2022-12-07T03:47:59;31.93;;;13.50;;
7450;SDS011;3767;42.688;23.360;2022-12-07T03:50:29;33.57;;;13.83;;
7450;SDS011;3767;42.688;23.360;2022-12-07T03:52:58;27.03;;;13.47;;
7450;SDS011;3767;42.688;23.360;2022-12-07T03:55:29;37.50;;;13.70;;
7450;SDS011;3767;42.688;23.360;2022-12-07T03:58:02;29.77;;;13.77;;
7450;SDS011;3767;42.688;23.360;2022-12-07T04:00:30;30.83;;;14.13;;
7450;SDS011;3767;42.688;23.360;2022-12-07T04:02:56;31.47;;;13.60;;
7450;SDS011;3767;42.688;23.360;2022-12-07T04:05:23;27.07;;;13.23;;
7450;SDS011;3767;42.688;23.360;2022-12-07T04:07:50;31.23;;;13.77;;
7450;SDS011;3767;42.688;23.360;2022-12-07T04:10:16;32.67;;;14.10;;
7450;SDS011;3767;42.688;23.360;2022-12-07T04:12:44;31.23;;;13.90;;
7450;SDS011;3767;42.688;23.360;2022-12-07T04:15:11;30.33;;;13.67;;
7450;SDS011;3767;42.688;23.360;2022-12-07T04:17:37;39.07;;;14.20;;
7450;SDS011;3767;42.688;23.360;2022-12-07T04:20:04;34.10;;;14.20;;
7450;SDS011;3767;42.688;23.360;2022-12-07T04:22:31;30.47;;;14.33;;
7450;SDS011;3767;42.688;23.360;2022-12-07T04:24:58;31.23;;;14.00;;
7450;SDS011;3767;42.688;23.360;2022-12-07T04:27:24;29.80;;;14.77;;
7450;SDS011;3767;42.688;23.360;2022-12-07T04:29:52;35.00;;;14.47;;
7450;SDS011;3767;42.688;23.360;2022-12-07T04:32:20;37.80;;;15.27;;
7450;SDS011;3767;42.688;23.360;2022-12-07T04:34:46;33.83;;;14.50;;
7450;SDS011;3767;42.688;23.360;2022-12-07T04:37:13;34.60;;;14.37;;
7450;SDS011;3767;42.688;23.360;2022-12-07T04:39:39;35.03;;;15.13;;
7450;SDS011;3767;42.688;23.360;2022-12-07T04:42:06;34.60;;;15.37;;
7450;SDS011;3767;42.688;23.360;2022-12-07T04:44:32;32.20;;;15.47;;
7450;SDS011;3767;42.688;23.360;2022-12-07T04:47:00;38.60;;;14.67;;
7450;SDS011;3767;42.688;23.360;2022-12-07T04:49:27;31.50;;;14.67;;
7450;SDS011;3767;42.688;23.360;2022-12-07T04:51:53;31.30;;;14.23;;
7450;SDS011;3767;42.688;23.360;2022-12-07T04:54:20;33.13;;;14.80;;
7450;SDS011;3767;42.688;23.360;2022-12-07T04:56:47;35.43;;;15.93;;
7450;SDS011;3767;42.688;23.360;2022-12-07T04:59:13;36.67;;;16.33;;
7450;SDS011;3767;42.688;23.360;2022-12-07T05:01:40;35.77;;;16.07;;
7450;SDS011;3767;42.688;23.360;2022-12-07T05:04:08;40.30;;;16.47;;
7450;SDS011;3767;42.688;23.360;2022-12-07T05:06:35;30.53;;;14.50;;
7450;SDS011;3767;42.688;23.360;2022-12-07T05:09:02;39.27;;;15.43;;
7450;SDS011;3767;42.688;23.360;2022-12-07T05:11:28;37.43;;;15.23;;
7450;SDS011;3767;42.688;23.360;2022-12-07T05:14:05;35.10;;;16.00;;
7450;SDS011;3767;42.688;23.360;2022-12-07T05:16:32;30.43;;;15.87;;
7450;SDS011;3767;42.688;23.360;2022-12-07T05:18:58;34.07;;;14.17;;
7450;SDS011;3767;42.688;23.360;2022-12-07T05:21:26;38.70;;;15.80;;
7450;SDS011;3767;42.688;23.360;2022-12-07T05:23:52;50.80;;;15.77;;
7450;SDS011;3767;42.688;23.360;2022-12-07T05:26:19;35.97;;;16.90;;
7450;SDS011;3767;42.688;23.360;2022-12-07T05:28:49;31.77;;;14.87;;
7450;SDS011;3767;42.688;23.360;2022-12-07T05:31:16;29.73;;;14.10;;
7450;SDS011;3767;42.688;23.360;2022-12-07T05:33:42;41.67;;;20.93;;
7450;SDS011;3767;42.688;23.360;2022-12-07T05:36:09;37.70;;;17.53;;
7450;SDS011;3767;42.688;23.360;2022-12-07T05:38:36;31.90;;;16.17;;
7450;SDS011;3767;42.688;23.360;2022-12-07T05:41:03;39.80;;;17.70;;
7450;SDS011;3767;42.688;23.360;2022-12-07T05:43:30;34.23;;;15.80;;
7450;SDS011;3767;42.688;23.360;2022-12-07T05:45:57;32.80;;;15.03;;
7450;SDS011;3767;42.688;23.360;2022-12-07T05:48:23;36.43;;;14.33;;
7450;SDS011;3767;42.688;23.360;2022-12-07T05:50:50;36.60;;;16.00;;
7450;SDS011;3767;42.688;23.360;2022-12-07T05:53:17;46.13;;;18.27;;
7450;SDS011;3767;42.688;23.360;2022-12-07T05:55:44;34.97;;;17.10;;
7450;SDS011;3767;42.688;23.360;2022-12-07T05:58:11;38.07;;;16.77;;
7450;SDS011;3767;42.688;23.360;2022-12-07T06:00:55;36.43;;;17.10;;
7450;SDS011;3767;42.688;23.360;2022-12-07T06:03:21;39.60;;;17.37;;
7450;SDS011;3767;42.688;23.360;2022-12-07T06:05:48;37.63;;;16.77;;
7450;SDS011;3767;42.688;23.360;2022-12-07T06:08:14;40.40;;;18.27;;
7450;SDS011;3767;42.688;23.360;2022-12-07T06:10:41;40.67;;;18.00;;
7450;SDS011;3767;42.688;23.360;2022-12-07T06:13:09;36.73;;;16.87;;
7450;SDS011;3767;42.688;23.360;2022-12-07T06:15:35;36.17;;;16.67;;
7450;SDS011;3767;42.688;23.360;2022-12-07T06:18:01;37.07;;;16.77;;
7450;SDS011;3767;42.688;23.360;2022-12-07T06:20:28;36.60;;;16.53;;
7450;SDS011;3767;42.688;23.360;2022-12-07T06:22:54;39.93;;;17.83;;
7450;SDS011;3767;42.688;23.360;2022-12-07T06:25:21;44.17;;;20.00;;
7450;SDS011;3767;42.688;23.360;2022-12-07T06:27:47;54.93;;;24.33;;
7450;SDS011;3767;42.688;23.360;2022-12-07T06:30:15;40.67;;;17.77;;
7450;SDS011;3767;42.688;23.360;2022-12-07T06:32:42;40.77;;;17.47;;
7450;SDS011;3767;42.688;23.360;2022-12-07T06:35:08;42.93;;;16.83;;
7450;SDS011;3767;42.688;23.360;2022-12-07T06:37:35;39.13;;;16.93;;
7450;SDS011;3767;42.688;23.360;2022-12-07T06:40:02;34.97;;;16.57;;
7450;SDS011;3767;42.688;23.360;2022-12-07T06:42:28;34.00;;;15.90;;
7450;SDS011;3767;42.688;23.360;2022-12-07T06:44:55;41.30;;;16.37;;
7450;SDS011;3767;42.688;23.360;2022-12-07T06:47:22;37.53;;;17.10;;
7450;SDS011;3767;42.688;23.360;2022-12-07T06:49:49;39.13;;;17.07;;
7450;SDS011;3767;42.688;23.360;2022-12-07T06:52:15;45.00;;;16.63;;
7450;SDS011;3767;42.688;23.360;2022-12-07T06:54:42;45.10;;;16.67;;
7450;SDS011;3767;42.688;23.360;2022-12-07T06:57:09;38.47;;;16.37;;
7450;SDS011;3767;42.688;23.360;2022-12-07T06:59:36;39.00;;;16.30;;
7450;SDS011;3767;42.688;23.360;2022-12-07T07:02:02;38.20;;;17.53;;
7450;SDS011;3767;42.688;23.360;2022-12-07T07:04:30;49.70;;;24.23;;
7450;SDS011;3767;42.688;23.360;2022-12-07T07:06:57;45.60;;;20.90;;
7450;SDS011;3767;42.688;23.360;2022-12-07T07:09:23;47.30;;;21.70;;
7450;SDS011;3767;42.688;23.360;2022-12-07T07:11:50;43.60;;;19.37;;
7450;SDS011;3767;42.688;23.360;2022-12-07T07:14:16;42.57;;;18.07;;
7450;SDS011;3767;42.688;23.360;2022-12-07T07:16:44;39.37;;;17.47;;
7450;SDS011;3767;42.688;23.360;2022-12-07T07:19:10;48.17;;;19.17;;
7450;SDS011;3767;42.688;23.360;2022-12-07T07:21:38;50.37;;;22.73;;
7450;SDS011;3767;42.688;23.360;2022-12-07T07:24:05;47.47;;;22.00;;
7450;SDS011;3767;42.688;23.360;2022-12-07T07:26:31;44.43;;;19.40;;
7450;SDS011;3767;42.688;23.360;2022-12-07T07:28:58;42.07;;;19.00;;
7450;SDS011;3767;42.688;23.360;2022-12-07T07:31:24;49.73;;;19.40;;
7450;SDS011;3767;42.688;23.360;2022-12-07T07:33:51;44.50;;;19.47;;
7450;SDS011;3767;42.688;23.360;2022-12-07T07:36:17;55.80;;;23.40;;
7450;SDS011;3767;42.688;23.360;2022-12-07T07:38:45;50.97;;;24.40;;
7450;SDS011;3767;42.688;23.360;2022-12-07T07:41:12;58.20;;;26.47;;
7450;SDS011;3767;42.688;23.360;2022-12-07T07:43:38;53.90;;;26.27;;
7450;SDS011;3767;42.688;23.360;2022-12-07T07:46:05;65.13;;;27.07;;
7450;SDS011;3767;42.688;23.360;2022-12-07T07:48:31;69.57;;;27.03;;
7450;SDS011;3767;42.688;23.360;2022-12-07T07:50:58;69.60;;;27.93;;
7450;SDS011;3767;42.688;23.360;2022-12-07T07:53:24;60.10;;;27.03;;
7450;SDS011;3767;42.688;23.360;2022-12-07T07:55:52;70.40;;;28.13;;
7450;SDS011;3767;42.688;23.360;2022-12-07T07:58:19;51.30;;;24.13;;
7450;SDS011;3767;42.688;23.360;2022-12-07T08:00:46;48.33;;;21.67;;
7450;SDS011;3767;42.688;23.360;2022-12-07T08:03:12;51.97;;;23.63;;
7450;SDS011;3767;42.688;23.360;2022-12-07T08:05:39;49.60;;;22.90;;
7450;SDS011;3767;42.688;23.360;2022-12-07T08:08:05;46.20;;;22.20;;
7450;SDS011;3767;42.688;23.360;2022-12-07T08:10:32;45.87;;;21.90;;
7450;SDS011;3767;42.688;23.360;2022-12-07T08:13:01;43.20;;;21.10;;
7450;SDS011;3767;42.688;23.360;2022-12-07T08:15:38;49.83;;;22.37;;
7450;SDS011;3767;42.688;23.360;2022-12-07T08:18:05;54.03;;;21.63;;
7450;SDS011;3767;42.688;23.360;2022-12-07T08:20:33;44.87;;;20.63;;
7450;SDS011;3767;42.688;23.360;2022-12-07T08:22:59;45.67;;;20.40;;
7450;SDS011;3767;42.688;23.360;2022-12-07T08:25:26;55.07;;;22.67;;
7450;SDS011;3767;42.688;23.360;2022-12-07T08:27:53;49.83;;;22.70;;
7450;SDS011;3767;42.688;23.360;2022-12-07T08:30:21;54.27;;;23.40;;
7450;SDS011;3767;42.688;23.360;2022-12-07T08:32:48;55.20;;;23.63;;
7450;SDS011;3767;42.688;23.360;2022-12-07T08:35:14;55.57;;;23.47;;
7450;SDS011;3767;42.688;23.360;2022-12-07T08:37:41;52.93;;;22.83;;
7450;SDS011;3767;42.688;23.360;2022-12-07T08:40:08;59.00;;;26.97;;
7450;SDS011;3767;42.688;23.360;2022-12-07T08:42:35;50.27;;;21.97;;
7450;SDS011;3767;42.688;23.360;2022-12-07T08:45:05;46.53;;;21.17;;
7450;SDS011;3767;42.688;23.360;2022-12-07T08:47:33;51.07;;;21.37;;
7450;SDS011;3767;42.688;23.360;2022-12-07T08:50:00;48.57;;;20.63;;
7450;SDS011;3767;42.688;23.360;2022-12-07T08:52:28;44.57;;;20.93;;
7450;SDS011;3767;42.688;23.360;2022-12-07T08:54:55;45.43;;;21.73;;
7450;SDS011;3767;42.688;23.360;2022-12-07T08:57:22;46.10;;;22.43;;
7450;SDS011;3767;42.688;23.360;2022-12-07T08:59:48;59.23;;;23.17;;
7450;SDS011;3767;42.688;23.360;2022-12-07T09:02:15;50.93;;;21.83;;
7450;SDS011;3767;42.688;23.360;2022-12-07T09:04:43;53.40;;;21.77;;
7450;SDS011;3767;42.688;23.360;2022-12-07T09:07:09;54.90;;;23.87;;
7450;SDS011;3767;42.688;23.360;2022-12-07T09:09:36;58.33;;;22.63;;
7450;SDS011;3767;42.688;23.360;2022-12-07T09:12:02;58.03;;;23.00;;
7450;SDS011;3767;42.688;23.360;2022-12-07T09:14:29;56.03;;;23.70;;
7450;SDS011;3767;42.688;23.360;2022-12-07T09:17:04;50.57;;;23.33;;
7450;SDS011;3767;42.688;23.360;2022-12-07T09:19:30;48.07;;;21.50;;
7450;SDS011;3767;42.688;23.360;2022-12-07T09:21:58;50.60;;;23.27;;
7450;SDS011;3767;42.688;23.360;2022-12-07T09:24:25;55.37;;;24.73;;
7450;SDS011;3767;42.688;23.360;2022-12-07T09:26:51;49.73;;;23.37;;
7450;SDS011;3767;42.688;23.360;2022-12-07T09:29:17;49.97;;;23.90;;
7450;SDS011;3767;42.688;23.360;2022-12-07T09:31:44;50.17;;;23.80;;
7450;SDS011;3767;42.688;23.360;2022-12-07T09:34:11;59.33;;;24.23;;
7450;SDS011;3767;42.688;23.360;2022-12-07T09:36:37;49.27;;;23.60;;
7450;SDS011;3767;42.688;23.360;2022-12-07T09:39:05;50.53;;;23.77;;
7450;SDS011;3767;42.688;23.360;2022-12-07T09:41:32;57.07;;;24.07;;
7450;SDS011;3767;42.688;23.360;2022-12-07T09:44:02;50.20;;;24.50;;
7450;SDS011;3767;42.688;23.360;2022-12-07T09:46:29;53.50;;;23.17;;
7450;SDS011;3767;42.688;23.360;2022-12-07T09:49:00;52.23;;;23.47;;
7450;SDS011;3767;42.688;23.360;2022-12-07T09:51:26;47.80;;;22.07;;
7450;SDS011;3767;42.688;23.360;2022-12-07T09:53:53;47.13;;;22.53;;
7450;SDS011;3767;42.688;23.360;2022-12-07T09:56:22;46.30;;;21.60;;
7450;SDS011;3767;42.688;23.360;2022-12-07T09:58:49;46.07;;;21.37;;
7450;SDS011;3767;42.688;23.360;2022-12-07T10:01:17;40.93;;;20.23;;
7450;SDS011;3767;42.688;23.360;2022-12-07T10:03:45;46.97;;;21.20;;
7450;SDS011;3767;42.688;23.360;2022-12-07T10:06:14;49.70;;;20.33;;
7450;SDS011;3767;42.688;23.360;2022-12-07T10:08:41;50.63;;;20.97;;
7450;SDS011;3767;42.688;23.360;2022-12-07T10:11:08;39.63;;;19.53;;
7450;SDS011;3767;42.688;23.360;2022-12-07T10:13:38;54.53;;;20.20;;
7450;SDS011;3767;42.688;23.360;2022-12-07T10:16:05;44.40;;;19.13;;
7450;SDS011;3767;42.688;23.360;2022-12-07T10:18:32;49.00;;;19.93;;
7450;SDS011;3767;42.688;23.360;2022-12-07T10:21:02;42.13;;;18.60;;
7450;SDS011;3767;42.688;23.360;2022-12-07T10:23:29;38.27;;;18.17;;
7450;SDS011;3767;42.688;23.360;2022-12-07T10:25:55;46.87;;;20.37;;
7450;SDS011;3767;42.688;23.360;2022-12-07T10:28:22;38.67;;;17.70;;
7450;SDS011;3767;42.688;23.360;2022-12-07T10:30:54;41.20;;;17.77;;
7450;SDS011;3767;42.688;23.360;2022-12-07T10:36:18;35.63;;;16.03;;
7450;SDS011;3767;42.688;23.360;2022-12-07T10:38:46;33.37;;;17.00;;
7450;SDS011;3767;42.688;23.360;2022-12-07T10:41:12;35.30;;;15.80;;
7450;SDS011;3767;42.688;23.360;2022-12-07T10:43:46;29.93;;;15.33;;
7450;SDS011;3767;42.688;23.360;2022-12-07T10:51:55;39.23;;;16.33;;
7450;SDS011;3767;42.688;23.360;2022-12-07T10:54:28;33.87;;;15.93;;
7450;SDS011;3767;42.688;23.360;2022-12-07T10:57:08;34.80;;;17.13;;
7450;SDS011;3767;42.688;23.360;2022-12-07T10:59:46;32.83;;;15.33;;
7450;SDS011;3767;42.688;23.360;2022-12-07T11:02:23;31.53;;;15.63;;
7450;SDS011;3767;42.688;23.360;2022-12-07T11:04:55;30.87;;;14.43;;
7450;SDS011;3767;42.688;23.360;2022-12-07T11:07:28;31.20;;;14.80;;
7450;SDS011;3767;42.688;23.360;2022-12-07T11:10:02;40.40;;;16.87;;
7450;SDS011;3767;42.688;23.360;2022-12-07T11:12:35;40.10;;;19.13;;
7450;SDS011;3767;42.688;23.360;2022-12-07T11:15:07;42.77;;;18.57;;
7450;SDS011;3767;42.688;23.360;2022-12-07T11:17:41;33.00;;;15.47;;
7450;SDS011;3767;42.688;23.360;2022-12-07T11:20:13;33.10;;;16.00;;
7450;SDS011;3767;42.688;23.360;2022-12-07T11:22:45;35.90;;;16.30;;
7450;SDS011;3767;42.688;23.360;2022-12-07T11:25:17;36.23;;;16.33;;
7450;SDS011;3767;42.688;23.360;2022-12-07T11:27:45;37.80;;;16.93;;
7450;SDS011;3767;42.688;23.360;2022-12-07T11:30:14;40.20;;;17.87;;
7450;SDS011;3767;42.688;23.360;2022-12-07T11:35:31;40.47;;;17.67;;
7450;SDS011;3767;42.688;23.360;2022-12-07T11:38:01;34.70;;;16.47;;
7450;SDS011;3767;42.688;23.360;2022-12-07T11:40:34;38.80;;;17.13;;
7450;SDS011;3767;42.688;23.360;2022-12-07T11:43:03;35.57;;;17.40;;
7450;SDS011;3767;42.688;23.360;2022-12-07T11:45:31;36.53;;;17.97;;
7450;SDS011;3767;42.688;23.360;2022-12-07T11:47:59;29.60;;;14.60;;
7450;SDS011;3767;42.688;23.360;2022-12-07T11:50:27;25.07;;;12.93;;
7450;SDS011;3767;42.688;23.360;2022-12-07T11:52:56;19.43;;;10.83;;
7450;SDS011;3767;42.688;23.360;2022-12-07T11:55:26;17.67;;;10.40;;
7450;SDS011;3767;42.688;23.360;2022-12-07T11:57:58;24.57;;;11.53;;
7450;SDS011;3767;42.688;23.360;2022-12-07T12:00:28;22.20;;;10.73;;
7450;SDS011;3767;42.688;23.360;2022-12-07T12:02:55;23.00;;;11.30;;
7450;SDS011;3767;42.688;23.360;2022-12-07T12:05:24;23.33;;;11.77;;
7450;SDS011;3767;42.688;23.360;2022-12-07T12:07:52;23.38;;;13.45;;
7450;SDS011;3767;42.688;23.360;2022-12-07T12:10:21;28.20;;;13.90;;
7450;SDS011;3767;42.688;23.360;2022-12-07T12:12:57;29.60;;;15.15;;
7450;SDS011;3767;42.688;23.360;2022-12-07T12:15:30;36.97;;;16.80;;
7450;SDS011;3767;42.688;23.360;2022-12-07T12:18:02;29.95;;;18.00;;
7450;SDS011;3767;42.688;23.360;2022-12-07T12:20:35;36.72;;;18.55;;
7450;SDS011;3767;42.688;23.360;2022-12-07T12:23:06;28.92;;;15.50;;
7450;SDS011;3767;42.688;23.360;2022-12-07T12:25:36;26.80;;;14.73;;
7450;SDS011;3767;42.688;23.360;2022-12-07T12:28:05;28.60;;;14.73;;
7450;SDS011;3767;42.688;23.360;2022-12-07T12:30:33;30.40;;;12.35;;
7450;SDS011;3767;42.688;23.360;2022-12-07T12:33:06;44.08;;;17.95;;
7450;SDS011;3767;42.688;23.360;2022-12-07T12:35:39;26.45;;;14.68;;
7450;SDS011;3767;42.688;23.360;2022-12-07T12:38:25;29.15;;;15.15;;
7450;SDS011;3767;42.688;23.360;2022-12-07T12:40:52;35.37;;;17.97;;
7450;SDS011;3767;42.688;23.360;2022-12-07T12:48:52;33.73;;;15.13;;
7450;SDS011;3767;42.688;23.360;2022-12-07T12:54:10;28.20;;;13.53;;
7450;SDS011;3767;42.688;23.360;2022-12-07T12:56:39;28.10;;;13.63;;
7450;SDS011;3767;42.688;23.360;2022-12-07T12:59:21;27.00;;;13.75;;
7450;SDS011;3767;42.688;23.360;2022-12-07T13:01:48;26.45;;;13.88;;
7450;SDS011;3767;42.688;23.360;2022-12-07T13:04:24;30.92;;;15.55;;
7450;SDS011;3767;42.688;23.360;2022-12-07T13:06:51;27.25;;;15.40;;
7450;SDS011;3767;42.688;23.360;2022-12-07T13:09:19;33.80;;;17.98;;
7450;SDS011;3767;42.688;23.360;2022-12-07T13:11:47;31.05;;;16.92;;
7450;SDS011;3767;42.688;23.360;2022-12-07T13:16:59;31.80;;;18.15;;
7450;SDS011;3767;42.688;23.360;2022-12-07T13:24:50;27.98;;;17.20;;
7450;SDS011;3767;42.688;23.360;2022-12-07T13:27:20;27.63;;;15.85;;
7450;SDS011;3767;42.688;23.360;2022-12-07T13:29:47;27.83;;;16.35;;
7450;SDS011;3767;42.688;23.360;2022-12-07T13:32:17;23.63;;;15.40;;
7450;SDS011;3767;42.688;23.360;2022-12-07T13:34:48;25.58;;;15.50;;
7450;SDS011;3767;42.688;23.360;2022-12-07T13:37:24;22.85;;;15.38;;
7450;SDS011;3767;42.688;23.360;2022-12-07T13:39:53;25.48;;;15.68;;
7450;SDS011;3767;42.688;23.360;2022-12-07T13:42:22;26.02;;;14.55;;
7450;SDS011;3767;42.688;23.360;2022-12-07T13:44:50;23.17;;;12.90;;
7450;SDS011;3767;42.688;23.360;2022-12-07T13:47:17;27.80;;;13.73;;
7450;SDS011;3767;42.688;23.360;2022-12-07T13:49:46;24.38;;;12.85;;
7450;SDS011;3767;42.688;23.360;2022-12-07T13:52:14;22.92;;;13.65;;
7450;SDS011;3767;42.688;23.360;2022-12-07T13:54:43;22.23;;;13.75;;
7450;SDS011;3767;42.688;23.360;2022-12-07T13:57:11;20.70;;;12.73;;
7450;SDS011;3767;42.688;23.360;2022-12-07T13:59:38;23.95;;;12.23;;
7450;SDS011;3767;42.688;23.360;2022-12-07T14:02:16;22.70;;;12.85;;
7450;SDS011;3767;42.688;23.360;2022-12-07T14:04:43;24.73;;;13.55;;
7450;SDS011;3767;42.688;23.360;2022-12-07T14:07:18;29.25;;;13.45;;
7450;SDS011;3767;42.688;23.360;2022-12-07T14:09:53;26.35;;;13.80;;
7450;SDS011;3767;42.688;23.360;2022-12-07T14:12:21;25.75;;;14.82;;
7450;SDS011;3767;42.688;23.360;2022-12-07T14:14:47;27.45;;;15.02;;
7450;SDS011;3767;42.688;23.360;2022-12-07T14:17:15;29.00;;;15.57;;
7450;SDS011;3767;42.688;23.360;2022-12-07T14:19:43;39.28;;;16.95;;
7450;SDS011;3767;42.688;23.360;2022-12-07T14:22:17;29.98;;;16.88;;
7450;SDS011;3767;42.688;23.360;2022-12-07T14:24:45;29.83;;;16.48;;
7450;SDS011;3767;42.688;23.360;2022-12-07T14:27:16;30.55;;;16.73;;
7450;SDS011;3767;42.688;23.360;2022-12-07T14:29:45;28.15;;;14.02;;
7450;SDS011;3767;42.688;23.360;2022-12-07T14:32:22;22.63;;;12.95;;
7450;SDS011;3767;42.688;23.360;2022-12-07T14:34:53;30.23;;;13.07;;
7450;SDS011;3767;42.688;23.360;2022-12-07T14:37:20;24.77;;;12.30;;
7450;SDS011;3767;42.688;23.360;2022-12-07T14:39:46;27.80;;;13.13;;
7450;SDS011;3767;42.688;23.360;2022-12-07T14:42:13;22.40;;;12.00;;
7450;SDS011;3767;42.688;23.360;2022-12-07T14:44:40;32.70;;;13.63;;
7450;SDS011;3767;42.688;23.360;2022-12-07T14:47:09;24.43;;;12.00;;
7450;SDS011;3767;42.688;23.360;2022-12-07T14:49:36;24.93;;;11.83;;
7450;SDS011;3767;42.688;23.360;2022-12-07T14:52:02;30.07;;;13.10;;
7450;SDS011;3767;42.688;23.360;2022-12-07T14:54:30;31.53;;;13.67;;
7450;SDS011;3767;42.688;23.360;2022-12-07T14:56:57;27.37;;;12.57;;
7450;SDS011;3767;42.688;23.360;2022-12-07T14:59:24;28.63;;;11.27;;
7450;SDS011;3767;42.688;23.360;2022-12-07T15:01:50;30.87;;;11.60;;
7450;SDS011;3767;42.688;23.360;2022-12-07T15:04:18;24.73;;;11.10;;
7450;SDS011;3767;42.688;23.360;2022-12-07T15:06:54;23.07;;;10.80;;
7450;SDS011;3767;42.688;23.360;2022-12-07T15:09:20;29.50;;;11.87;;
7450;SDS011;3767;42.688;23.360;2022-12-07T15:11:46;24.87;;;11.87;;
7450;SDS011;3767;42.688;23.360;2022-12-07T15:14:13;25.13;;;11.53;;